Airport View

Enter AWOS ICAO identifier for current METAR.

ex. KFNL

KGED 212254Z AUTO 15006KT 10SM CLR A3018 RMK AO2 SLPNO $

21 Sep 2019 23:24

Frequency: 118.375

Phone: 302-856-2927

Other Area AWOS: KSBY - KOXB - KDOV - KWWD

TAF KSBY 211720Z 2118/2218 23007KT P6SM SKC FM220100 19004KT P6SM SCT080 FM221400 21006KT P6SM SKC